Time;durP1;ratioP1;P1;durP2;ratioP2;P2;SDS_P1;SDS_P2;PMS_P1;PMS_P2;Temp;Humidity;BMP_temperature;BMP_pressure;BME280_temperature;BME280_humidity;BME280_pressure;Samples;Min_cycle;Max_cycle;Signal;HPM_P1;HPM_P2
2023/07/25 00:01:58;;;;;;;;;;;;;;;17.03;nan;99771.06;4098738;28;20005;-66
2023/07/25 00:04:00;;;;;;;;;;;;;;;16.99;nan;99768.03;4098536;28;20021;-65
2023/07/25 00:06:04;;;;;;;;;;;;;;;16.99;nan;99772.63;4098024;28;20432;-65
2023/07/25 00:08:06;;;;;;;;;;;;;;;16.99;nan;99773.47;4098564;28;20367;-66
2023/07/25 00:10:08;;;;;;;;;;;;;;;16.96;nan;99775.84;4098394;28;20017;-66
2023/07/25 00:12:10;;;;;;;;;;;;;;;16.96;nan;99773.09;4098744;28;20017;-65
2023/07/25 00:14:12;;;;;;;;;;;;;;;16.95;nan;99771.47;4097586;28;20557;-66
2023/07/25 00:16:14;;;;;;;;;;;;;;;16.92;nan;99775.50;4098144;28;20092;-64
2023/07/25 00:18:17;;;;;;;;;;;;;;;16.93;nan;99774.44;4097884;28;20128;-66
2023/07/25 00:20:18;;;;;;;;;;;;;;;16.95;nan;99776.94;4097745;28;20478;-66
2023/07/25 00:22:20;;;;;;;;;;;;;;;16.95;nan;99777.75;4097620;28;19934;-65
2023/07/25 00:24:22;;;;;;;;;;;;;;;16.95;nan;99779.66;4098410;28;20369;-66
2023/07/25 00:26:24;;;;;;;;;;;;;;;16.95;nan;99779.66;4099535;28;20696;-67
2023/07/25 00:28:26;;;;;;;;;;;;;;;16.92;nan;99770.03;4097660;28;20020;-65
2023/07/25 00:30:27;;;;;;;;;;;;;;;16.92;nan;99776.31;4097758;28;20025;-66
2023/07/25 00:32:29;;;;;;;;;;;;;;;16.89;nan;99774.06;4097581;28;19922;-65
2023/07/25 00:34:33;;;;;;;;;;;;;;;16.89;nan;99779.53;4098583;28;20017;-66
2023/07/25 00:36:35;;;;;;;;;;;;;;;16.90;nan;99783.94;4072335;29;20002;-67
2023/07/25 00:38:36;;;;;;;;;;;;;;;16.92;nan;99780.97;4097459;28;20040;-67
2023/07/25 00:40:38;;;;;;;;;;;;;;;16.91;nan;99782.88;4097442;28;20034;-65
2023/07/25 00:42:40;;;;;;;;;;;;;;;16.92;nan;99784.50;4097679;28;20029;-66
2023/07/25 00:44:42;;;;;;;;;;;;;;;16.93;nan;99783.44;4097620;28;20016;-66
2023/07/25 00:46:44;;;;;;;;;;;;;;;16.95;nan;99788.66;4097539;28;20009;-65
2023/07/25 00:48:46;;;;;;;;;;;;;;;16.94;nan;99789.72;4096440;28;20099;-66
2023/07/25 00:50:49;;;;;;;;;;;;;;;16.93;nan;99785.34;4086925;28;20022;-66
2023/07/25 00:52:50;;;;;;;;;;;;;;;16.92;nan;99780.97;4111954;28;20010;-66
2023/07/25 00:54:53;;;;;;;;;;;;;;;16.92;nan;99786.41;4097755;28;20025;-66
2023/07/25 00:56:54;;;;;;;;;;;;;;;16.89;nan;99786.91;4098338;28;20013;-66
2023/07/25 00:58:56;;;;;;;;;;;;;;;16.86;nan;99790.09;4096769;28;20017;-66
2023/07/25 01:01:02;;;;;;;;;;;;;;;16.87;nan;99794.50;4096295;28;20017;-67
2023/07/25 01:03:03;;;;;;;;;;;;;;;16.88;nan;99791.53;4097927;28;20014;-66
2023/07/25 01:05:05;;;;;;;;;;;;;;;16.90;nan;99786.66;4098524;28;19934;-67
2023/07/25 01:07:07;;;;;;;;;;;;;;;16.91;nan;99799.22;4097423;28;20017;-66
2023/07/25 01:09:09;;;;;;;;;;;;;;;16.90;nan;99794.84;4090272;28;20494;-66
2023/07/25 01:11:11;;;;;;;;;;;;;;;16.90;nan;99797.56;4096316;28;20013;-66
2023/07/25 01:13:13;;;;;;;;;;;;;;;16.90;nan;99794.03;4097485;28;20005;-66
2023/07/25 01:15:15;;;;;;;;;;;;;;;16.88;nan;99790.69;4098081;28;20371;-65
2023/07/25 01:17:19;;;;;;;;;;;;;;;16.88;nan;99804.31;4103768;28;20008;-66
2023/07/25 01:19:22;;;;;;;;;;;;;;;16.89;nan;99798.63;4098104;28;20026;-66
2023/07/25 01:21:24;;;;;;;;;;;;;;;16.93;nan;99797.06;4095605;28;20033;-66
2023/07/25 01:23:27;;;;;;;;;;;;;;;16.90;nan;99800.28;4097595;28;20013;-65
2023/07/25 01:25:31;;;;;;;;;;;;;;;16.90;nan;99802.19;4098397;28;20013;-67
2023/07/25 01:27:33;;;;;;;;;;;;;;;16.85;nan;99802.91;4097039;28;20021;-65
2023/07/25 01:29:35;;;;;;;;;;;;;;;16.87;nan;99805.41;4096796;28;20495;-65
2023/07/25 01:31:37;;;;;;;;;;;;;;;16.89;nan;99805.97;4084327;28;20036;-66
2023/07/25 01:33:39;;;;;;;;;;;;;;;16.88;nan;99815.22;4112298;28;20017;-66
2023/07/25 01:35:41;;;;;;;;;;;;;;;16.86;nan;99814.66;4112457;28;20353;-65
2023/07/25 01:37:43;;;;;;;;;;;;;;;16.85;nan;99811.06;4097274;28;20025;-65
2023/07/25 01:39:45;;;;;;;;;;;;;;;16.83;nan;99815.09;4097283;28;20475;-65
2023/07/25 01:41:48;;;;;;;;;;;;;;;16.80;nan;99813.66;4112930;28;20357;-66
2023/07/25 01:43:50;;;;;;;;;;;;;;;16.80;nan;99816.41;4097011;28;20099;-66
2023/07/25 01:45:52;;;;;;;;;;;;;;;16.77;nan;99814.19;4096135;28;20574;-66
2023/07/25 01:47:56;;;;;;;;;;;;;;;16.77;nan;99816.91;4096459;28;20018;-66
2023/07/25 01:49:58;;;;;;;;;;;;;;;16.77;nan;99825.09;4112176;28;20475;-67
2023/07/25 01:52:00;;;;;;;;;;;;;;;16.74;nan;99822.84;4097302;28;20341;-65
2023/07/25 01:54:02;;;;;;;;;;;;;;;16.71;nan;99817.88;4095846;28;20017;-65
2023/07/25 01:56:03;;;;;;;;;;;;;;;16.71;nan;99818.69;4112611;28;20005;-66
2023/07/25 01:58:07;;;;;;;;;;;;;;;16.69;nan;99820.00;4096909;28;20018;-66
2023/07/25 02:00:09;;;;;;;;;;;;;;;16.65;nan;99824.28;4093173;28;20013;-65
2023/07/25 02:02:17;;;;;;;;;;;;;;;16.62;nan;99822.84;4096789;28;20022;-66
2023/07/25 02:04:19;;;;;;;;;;;;;;;16.64;nan;99817.97;4096607;28;20013;-66
2023/07/25 02:06:22;;;;;;;;;;;;;;;16.65;nan;99810.66;4103619;28;20013;-66
2023/07/25 02:08:23;;;;;;;;;;;;;;;16.64;nan;99828.06;4097643;28;20020;-65
2023/07/25 02:10:27;;;;;;;;;;;;;;;16.65;nan;99824.28;4097031;28;20021;-65
2023/07/25 02:12:29;;;;;;;;;;;;;;;16.63;nan;99823.66;4111080;28;20029;-66
2023/07/25 02:14:32;;;;;;;;;;;;;;;16.64;nan;99819.88;4112168;28;20016;-66
2023/07/25 02:16:36;;;;;;;;;;;;;;;16.65;nan;99822.38;4117365;28;20025;-66
2023/07/25 02:18:37;;;;;;;;;;;;;;;16.67;nan;99833.84;4116990;28;20009;-65
2023/07/25 02:20:39;;;;;;;;;;;;;;;16.68;nan;99838.25;4101766;28;20030;-65
2023/07/25 02:22:41;;;;;;;;;;;;;;;16.71;nan;99839.69;4100805;28;20021;-66
2023/07/25 02:24:43;;;;;;;;;;;;;;;16.73;nan;99846.53;4102306;28;20028;-66
2023/07/25 02:26:45;;;;;;;;;;;;;;;16.76;nan;99839.78;4101608;28;20009;-66
2023/07/25 02:28:47;;;;;;;;;;;;;;;16.76;nan;99854.22;4108948;28;20005;-65
2023/07/25 02:30:50;;;;;;;;;;;;;;;16.81;nan;99852.69;4101698;28;20013;-66
2023/07/25 02:32:52;;;;;;;;;;;;;;;16.84;nan;99852.22;4101785;28;20013;-65
2023/07/25 02:34:54;;;;;;;;;;;;;;;16.86;nan;99863.75;4102157;28;20361;-65
2023/07/25 02:36:56;;;;;;;;;;;;;;;16.85;nan;99846.53;4102667;28;20021;-64
2023/07/25 02:38:58;;;;;;;;;;;;;;;16.88;nan;99853.41;4116340;28;20009;-65
2023/07/25 02:41:01;;;;;;;;;;;;;;;16.91;nan;99859.22;4100875;28;20013;-65
2023/07/25 02:43:03;;;;;;;;;;;;;;;16.94;nan;99863.34;4100887;28;20397;-65
2023/07/25 02:45:05;;;;;;;;;;;;;;;16.96;nan;99863.13;4101977;28;20497;-65
2023/07/25 02:47:08;;;;;;;;;;;;;;;16.96;nan;99869.41;4093347;28;20108;-65
2023/07/25 02:49:11;;;;;;;;;;;;;;;16.97;nan;99862.06;4101605;28;20021;-66
2023/07/25 02:51:13;;;;;;;;;;;;;;;16.97;nan;99870.25;4102032;28;20019;-65
2023/07/25 02:53:14;;;;;;;;;;;;;;;16.95;nan;99858.75;4102528;28;20018;-65
2023/07/25 02:55:16;;;;;;;;;;;;;;;16.93;nan;99862.53;4101464;28;19923;-66
2023/07/25 02:57:18;;;;;;;;;;;;;;;16.93;nan;99856.25;4101136;28;20021;-66
2023/07/25 02:59:20;;;;;;;;;;;;;;;16.93;nan;99867.19;4117310;28;20021;-66
2023/07/25 03:01:22;;;;;;;;;;;;;;;16.91;nan;99872.03;4116745;28;20387;-66
2023/07/25 03:03:25;;;;;;;;;;;;;;;16.91;nan;99874.75;4101639;28;20432;-66
2023/07/25 03:05:27;;;;;;;;;;;;;;;16.89;nan;99866.00;4102231;28;20017;-65
2023/07/25 03:07:29;;;;;;;;;;;;;;;16.90;nan;99873.09;4101930;28;20009;-66
2023/07/25 03:09:31;;;;;;;;;;;;;;;16.90;nan;99868.47;4100848;28;20497;-65
2023/07/25 03:11:33;;;;;;;;;;;;;;;16.90;nan;99879.38;4101716;28;20021;-65
2023/07/25 03:13:35;;;;;;;;;;;;;;;16.90;nan;99873.94;4101264;28;20001;-66
2023/07/25 03:15:37;;;;;;;;;;;;;;;16.92;nan;99879.13;4101726;28;20395;-65
2023/07/25 03:17:39;;;;;;;;;;;;;;;16.95;nan;99877.84;4100511;28;20486;-64
2023/07/25 03:19:42;;;;;;;;;;;;;;;16.96;nan;99879.47;4101833;28;20600;-66
2023/07/25 03:21:44;;;;;;;;;;;;;;;16.96;nan;99874.88;4107722;28;20012;-66
2023/07/25 03:23:46;;;;;;;;;;;;;;;16.95;nan;99875.13;4100813;28;20021;-66
2023/07/25 03:25:47;;;;;;;;;;;;;;;16.95;nan;99884.13;4100069;28;20025;-67
2023/07/25 03:27:49;;;;;;;;;;;;;;;16.97;nan;99871.06;4098183;28;20605;-66
2023/07/25 03:29:50;;;;;;;;;;;;;;;16.99;nan;99884.47;4099342;28;20041;-67
2023/07/25 03:31:52;;;;;;;;;;;;;;;17.01;nan;99883.16;4099430;28;20025;-66
2023/07/25 03:33:53;;;;;;;;;;;;;;;17.03;nan;99883.75;4097921;28;20009;-66
2023/07/25 03:35:57;;;;;;;;;;;;;;;17.06;nan;99885.16;4099209;28;20013;-66
2023/07/25 03:37:59;;;;;;;;;;;;;;;17.07;nan;99889.56;4097770;28;20337;-66
2023/07/25 03:40:01;;;;;;;;;;;;;;;17.06;nan;99883.25;4099157;28;20013;-66
2023/07/25 03:42:03;;;;;;;;;;;;;;;17.07;nan;99876.75;4104269;28;20022;-66
2023/07/25 03:44:04;;;;;;;;;;;;;;;17.04;nan;99874.50;4098523;28;20009;-66
2023/07/25 03:46:06;;;;;;;;;;;;;;;17.04;nan;99871.78;4098593;28;19985;-67
2023/07/25 03:48:09;;;;;;;;;;;;;;;17.06;nan;99880.53;4098014;28;20021;-66
2023/07/25 03:50:11;;;;;;;;;;;;;;;17.03;nan;99877.47;4102073;28;20013;-66
2023/07/25 03:52:14;;;;;;;;;;;;;;;17.02;nan;99878.53;4098077;28;20033;-66
2023/07/25 03:54:16;;;;;;;;;;;;;;;17.03;nan;99880.19;4098195;28;20013;-67
2023/07/25 03:56:18;;;;;;;;;;;;;;;17.01;nan;99872.25;4098886;28;20529;-66
2023/07/25 03:58:19;;;;;;;;;;;;;;;17.01;nan;99868.69;4097599;28;20029;-66
2023/07/25 04:00:21;;;;;;;;;;;;;;;16.99;nan;99874.41;4097550;28;20025;-66
2023/07/25 04:02:23;;;;;;;;;;;;;;;16.99;nan;99874.41;4098699;28;20436;-65
2023/07/25 04:04:25;;;;;;;;;;;;;;;17.00;nan;99867.03;4098725;29;20367;-66
2023/07/25 04:06:27;;;;;;;;;;;;;;;17.03;nan;99877.47;4098974;28;20013;-66
2023/07/25 04:08:31;;;;;;;;;;;;;;;17.04;nan;99876.41;4098426;28;20021;-65
2023/07/25 04:10:33;;;;;;;;;;;;;;;17.04;nan;99879.13;4098417;28;20029;-65
2023/07/25 04:12:35;;;;;;;;;;;;;;;17.05;nan;99880.78;4096604;28;20021;-65
2023/07/25 04:14:37;;;;;;;;;;;;;;;17.05;nan;99883.50;4098738;28;20381;-66
2023/07/25 04:16:39;;;;;;;;;;;;;;;16.98;nan;99882.81;4096910;28;20013;-66
2023/07/25 04:18:41;;;;;;;;;;;;;;;16.96;nan;99887.66;4095453;28;20018;-66
2023/07/25 04:20:43;;;;;;;;;;;;;;;16.95;nan;99896.94;4097759;28;20013;-66
2023/07/25 04:22:44;;;;;;;;;;;;;;;16.93;nan;99894.44;4097223;28;20001;-66
2023/07/25 04:24:48;;;;;;;;;;;;;;;16.91;nan;99891.97;4098778;28;20017;-67
2023/07/25 04:26:50;;;;;;;;;;;;;;;16.88;nan;99886.97;4098894;28;20367;-66
2023/07/25 04:28:52;;;;;;;;;;;;;;;16.85;nan;99884.69;4097736;28;20013;-65
2023/07/25 04:30:55;;;;;;;;;;;;;;;16.84;nan;99887.66;4097442;28;20046;-66
2023/07/25 04:32:57;;;;;;;;;;;;;;;16.84;nan;99899.41;4098023;28;20033;-65
2023/07/25 04:34:59;;;;;;;;;;;;;;;16.87;nan;99901.69;4097341;28;20013;-66
2023/07/25 04:37:01;;;;;;;;;;;;;;;16.88;nan;99900.63;4098519;28;20021;-66
2023/07/25 04:39:03;;;;;;;;;;;;;;;16.90;nan;99909.38;4095369;28;20005;-65
2023/07/25 04:41:07;;;;;;;;;;;;;;;16.90;nan;99903.94;4105265;28;20013;-65
2023/07/25 04:43:08;;;;;;;;;;;;;;;16.91;nan;99905.59;4098673;28;20001;-66
2023/07/25 04:45:11;;;;;;;;;;;;;;;16.91;nan;99913.78;4097798;28;20021;-65
2023/07/25 04:47:13;;;;;;;;;;;;;;;16.92;nan;99914.59;4098262;28;20021;-64
2023/07/25 04:49:16;;;;;;;;;;;;;;;16.88;nan;99911.53;4097111;28;20014;-65
2023/07/25 04:51:17;;;;;;;;;;;;;;;16.82;nan;99915.19;4097369;28;20034;-65
2023/07/25 04:53:21;;;;;;;;;;;;;;;16.76;nan;99914.22;4097892;28;20408;-65
2023/07/25 04:55:23;;;;;;;;;;;;;;;16.78;nan;99913.16;4113453;28;20032;-64
2023/07/25 04:57:26;;;;;;;;;;;;;;;16.78;nan;99918.63;4098100;28;20021;-65
2023/07/25 04:59:28;;;;;;;;;;;;;;;16.73;nan;99911.16;4098137;28;20474;-65
2023/07/25 05:01:30;;;;;;;;;;;;;;;16.73;nan;99902.97;4098336;28;20022;-64
2023/07/25 05:03:31;;;;;;;;;;;;;;;16.72;nan;99896.69;4098065;28;20006;-65
2023/07/25 05:05:33;;;;;;;;;;;;;;;16.74;nan;99896.47;4097069;28;19923;-65
2023/07/25 05:07:34;;;;;;;;;;;;;;;16.76;nan;99880.69;4097476;28;20016;-64
2023/07/25 05:09:36;;;;;;;;;;;;;;;16.79;nan;99885.66;4097523;28;20021;-65
2023/07/25 05:11:38;;;;;;;;;;;;;;;16.83;nan;99895.00;4097851;29;20032;-65
2023/07/25 05:13:41;;;;;;;;;;;;;;;16.86;nan;99885.56;4111989;28;20009;-65
2023/07/25 05:15:43;;;;;;;;;;;;;;;16.89;nan;99880.44;4097515;28;20013;-64
2023/07/25 05:17:45;;;;;;;;;;;;;;;16.89;nan;99882.34;4096410;28;20009;-64
2023/07/25 05:19:46;;;;;;;;;;;;;;;16.89;nan;99871.44;4097339;28;20024;-64
2023/07/25 05:21:48;;;;;;;;;;;;;;;16.91;nan;99861.09;4096379;28;19934;-65
2023/07/25 05:23:50;;;;;;;;;;;;;;;16.94;nan;99855.19;4097707;28;20008;-65
2023/07/25 05:25:52;;;;;;;;;;;;;;;16.97;nan;99856.59;4096921;28;20405;-65
2023/07/25 05:27:54;;;;;;;;;;;;;;;16.95;nan;99856.84;4097306;28;20024;-65
2023/07/25 05:29:57;;;;;;;;;;;;;;;16.99;nan;99865.38;4097495;28;20005;-65
2023/07/25 05:31:59;;;;;;;;;;;;;;;17.01;nan;99872.25;4097862;28;20045;-64
2023/07/25 05:34:01;;;;;;;;;;;;;;;16.99;nan;99868.94;4097127;28;20025;-65
2023/07/25 05:36:03;;;;;;;;;;;;;;;16.99;nan;99877.13;4097449;28;20030;-66
2023/07/25 05:38:07;;;;;;;;;;;;;;;16.99;nan;99885.31;4097270;28;20001;-64
2023/07/25 05:40:09;;;;;;;;;;;;;;;16.97;nan;99883.88;4096941;28;20024;-65
2023/07/25 05:42:10;;;;;;;;;;;;;;;16.96;nan;99887.66;4097282;28;20021;-65
2023/07/25 05:44:12;;;;;;;;;;;;;;;16.93;nan;99895.28;4095750;28;20348;-66
2023/07/25 05:46:15;;;;;;;;;;;;;;;16.96;nan;99893.13;4097095;28;20025;-66
2023/07/25 05:48:18;;;;;;;;;;;;;;;16.96;nan;99899.44;4096893;28;20009;-65
2023/07/25 05:50:20;;;;;;;;;;;;;;;16.96;nan;99902.16;4096478;28;20013;-65
2023/07/25 05:52:22;;;;;;;;;;;;;;;16.97;nan;99928.34;4094643;28;20017;-66
2023/07/25 05:54:23;;;;;;;;;;;;;;;16.97;nan;99943.88;4095749;28;20017;-65
2023/07/25 05:56:25;;;;;;;;;;;;;;;16.93;nan;99949.81;4096444;28;20009;-66
2023/07/25 05:58:27;;;;;;;;;;;;;;;16.93;nan;99963.44;4096453;28;20005;-66
2023/07/25 06:00:29;;;;;;;;;;;;;;;16.96;nan;99966.75;4097006;28;20060;-66
2023/07/25 06:02:32;;;;;;;;;;;;;;;16.96;nan;99981.25;4096848;28;20320;-66
2023/07/25 06:04:34;;;;;;;;;;;;;;;16.95;nan;99990.50;4096592;28;20021;-66
2023/07/25 06:06:36;;;;;;;;;;;;;;;16.92;nan;99983.59;4096674;28;20013;-65
2023/07/25 06:08:38;;;;;;;;;;;;;;;16.94;nan;99977.91;4096884;28;20457;-67
2023/07/25 06:10:41;;;;;;;;;;;;;;;16.93;nan;99973.53;4096687;28;20021;-65
2023/07/25 06:12:44;;;;;;;;;;;;;;;16.95;nan;99979.59;4095882;28;20017;-66
2023/07/25 06:14:46;;;;;;;;;;;;;;;16.94;nan;99975.19;4096742;28;20005;-66
2023/07/25 06:16:48;;;;;;;;;;;;;;;16.98;nan;99978.28;4096562;28;20020;-66
2023/07/25 06:18:51;;;;;;;;;;;;;;;16.99;nan;99974.47;4095775;28;20431;-66
2023/07/25 06:20:53;;;;;;;;;;;;;;;17.00;nan;99976.97;4084464;28;20009;-66
2023/07/25 06:22:55;;;;;;;;;;;;;;;16.99;nan;99972.59;4097094;28;20341;-65
2023/07/25 06:24:57;;;;;;;;;;;;;;;17.01;nan;99980.53;4096052;28;20433;-65
2023/07/25 06:26:59;;;;;;;;;;;;;;;17.02;nan;99977.56;4096553;28;20403;-66
2023/07/25 06:29:01;;;;;;;;;;;;;;;17.02;nan;99972.13;4096488;28;20096;-66
2023/07/25 06:31:02;;;;;;;;;;;;;;;17.04;nan;99975.44;4097492;28;20017;-66
2023/07/25 06:33:04;;;;;;;;;;;;;;;17.04;nan;99977.34;4096366;28;20029;-66
2023/07/25 06:35:08;;;;;;;;;;;;;;;17.06;nan;99983.38;4097819;28;20020;-66
2023/07/25 06:37:10;;;;;;;;;;;;;;;17.09;nan;99991.09;4097083;28;20020;-67
2023/07/25 06:39:12;;;;;;;;;;;;;;;17.15;nan;99992.00;4096221;28;20580;-66
2023/07/25 06:41:14;;;;;;;;;;;;;;;17.15;nan;99992.00;4097222;28;20028;-67
2023/07/25 06:43:16;;;;;;;;;;;;;;;17.10;nan;99981.84;4095877;28;20009;-66
2023/07/25 06:45:19;;;;;;;;;;;;;;;17.14;nan;99987.66;4095872;28;20119;-66
2023/07/25 06:47:21;;;;;;;;;;;;;;;17.14;nan;99988.47;4093309;28;20095;-65
2023/07/25 06:49:23;;;;;;;;;;;;;;;17.18;nan;99988.81;4094722;28;20017;-64
2023/07/25 06:51:27;;;;;;;;;;;;;;;17.25;nan;99984.06;4096221;28;20477;-67
2023/07/25 06:53:29;;;;;;;;;;;;;;;17.31;nan;99977.66;4096479;28;20017;-67
2023/07/25 06:55:31;;;;;;;;;;;;;;;17.34;nan;99971.72;4097427;28;20017;-66
2023/07/25 06:57:32;;;;;;;;;;;;;;;17.37;nan;99959.50;4095021;28;20440;-67
2023/07/25 06:59:34;;;;;;;;;;;;;;;17.38;nan;99964.72;4096589;28;20025;-67
2023/07/25 07:01:36;;;;;;;;;;;;;;;17.38;nan;99964.72;4099062;28;20017;-66
2023/07/25 07:03:38;;;;;;;;;;;;;;;17.37;nan;99968.50;4097173;28;20009;-66
2023/07/25 07:05:40;;;;;;;;;;;;;;;17.39;nan;99965.53;4097144;28;20013;-66
2023/07/25 07:07:43;;;;;;;;;;;;;;;17.40;nan;99954.38;4097876;29;20021;-66
2023/07/25 07:09:46;;;;;;;;;;;;;;;17.45;nan;99961.84;4099294;28;20025;-67
2023/07/25 07:11:48;;;;;;;;;;;;;;;17.50;nan;99956.47;4099537;28;20020;-66
2023/07/25 07:13:50;;;;;;;;;;;;;;;17.53;nan;99950.53;4097698;28;20436;-66
2023/07/25 07:15:52;;;;;;;;;;;;;;;17.55;nan;99945.66;4098944;29;20018;-66
2023/07/25 07:17:53;;;;;;;;;;;;;;;17.56;nan;99941.84;4098995;28;20017;-65
2023/07/25 07:19:58;;;;;;;;;;;;;;;17.61;nan;99949.31;4098809;28;20009;-66
2023/07/25 07:22:00;;;;;;;;;;;;;;;17.67;nan;99950.25;4098242;28;20045;-66
2023/07/25 07:24:04;;;;;;;;;;;;;;;17.72;nan;99939.44;4098800;28;20021;-65
2023/07/25 07:26:06;;;;;;;;;;;;;;;17.75;nan;99939.75;4099820;28;20620;-67
2023/07/25 07:28:08;;;;;;;;;;;;;;;17.81;nan;99946.97;4099971;28;20009;-67
2023/07/25 07:30:10;;;;;;;;;;;;;;;17.82;nan;99948.66;4099493;28;20009;-66
2023/07/25 07:32:12;;;;;;;;;;;;;;;17.81;nan;99946.16;4099528;28;20050;-66
2023/07/25 07:34:15;;;;;;;;;;;;;;;17.78;nan;99935.72;4098818;28;20025;-66
2023/07/25 07:36:17;;;;;;;;;;;;;;;17.82;nan;99945.06;4099611;28;20008;-67
2023/07/25 07:38:19;;;;;;;;;;;;;;;17.85;nan;99936.38;4098064;28;20009;-66
2023/07/25 07:40:23;;;;;;;;;;;;;;;17.91;nan;99945.53;4098913;28;20049;-66
2023/07/25 07:42:26;;;;;;;;;;;;;;;17.94;nan;99947.78;4098651;28;20022;-66
2023/07/25 07:44:28;;;;;;;;;;;;;;;17.93;nan;99941.50;4099144;28;20025;-67
2023/07/25 07:46:30;;;;;;;;;;;;;;;17.92;nan;99942.56;4098584;28;20025;-66
2023/07/25 07:48:32;;;;;;;;;;;;;;;17.90;nan;99957.53;4097237;28;20021;-66
2023/07/25 07:50:34;;;;;;;;;;;;;;;17.84;nan;99953.88;4098987;28;20452;-67
2023/07/25 07:52:40;;;;;;;;;;;;;;;17.86;nan;99954.44;4097876;28;20022;-66
2023/07/25 07:54:42;;;;;;;;;;;;;;;17.87;nan;99949.78;4098829;28;20044;-66
2023/07/25 07:56:46;;;;;;;;;;;;;;;17.89;nan;99944.97;4097315;28;20013;-66
2023/07/25 07:58:48;;;;;;;;;;;;;;;17.90;nan;99935.69;4098619;28;20005;-66
2023/07/25 08:00:50;;;;;;;;;;;;;;;17.90;nan;99927.47;4097950;28;20005;-65
2023/07/25 08:02:52;;;;;;;;;;;;;;;17.87;nan;99922.47;4098213;28;20021;-66
2023/07/25 08:04:54;;;;;;;;;;;;;;;17.89;nan;99923.94;4099141;28;20865;-66
2023/07/25 08:06:56;;;;;;;;;;;;;;;17.91;nan;99913.56;4098896;28;20021;-66
2023/07/25 08:08:58;;;;;;;;;;;;;;;17.91;nan;99919.03;4097605;28;20005;-66
2023/07/25 08:11:00;;;;;;;;;;;;;;;17.92;nan;99917.16;4098273;28;20364;-66
2023/07/25 08:13:03;;;;;;;;;;;;;;;18.00;nan;99923.03;4097416;28;20362;-66
2023/07/25 08:15:06;;;;;;;;;;;;;;;18.08;nan;99929.19;4098614;28;20017;-66
2023/07/25 08:17:08;;;;;;;;;;;;;;;18.13;nan;99921.88;4097208;28;20009;-65
2023/07/25 08:19:10;;;;;;;;;;;;;;;18.16;nan;99920.56;4097630;28;20013;-65
2023/07/25 08:21:12;;;;;;;;;;;;;;;18.23;nan;99912.19;4098061;28;20026;-65
2023/07/25 08:23:14;;;;;;;;;;;;;;;18.26;nan;99918.03;4097674;28;20034;-65
2023/07/25 08:25:16;;;;;;;;;;;;;;;18.28;nan;99915.03;4098341;28;20013;-66
2023/07/25 08:27:18;;;;;;;;;;;;;;;18.29;nan;99906.59;4098329;28;20614;-66
2023/07/25 08:29:21;;;;;;;;;;;;;;;18.30;nan;99912.88;4098626;28;20005;-66
2023/07/25 08:31:23;;;;;;;;;;;;;;;18.30;nan;99913.69;4097128;28;20404;-66
2023/07/25 08:33:25;;;;;;;;;;;;;;;18.33;nan;99915.94;4097686;28;20010;-66
2023/07/25 08:35:27;;;;;;;;;;;;;;;18.32;nan;99911.56;4099022;28;20033;-66
2023/07/25 08:37:29;;;;;;;;;;;;;;;18.33;nan;99923.31;4097658;28;20387;-65
2023/07/25 08:39:31;;;;;;;;;;;;;;;18.35;nan;99922.00;4099611;28;20021;-65
2023/07/25 08:41:37;;;;;;;;;;;;;;;18.42;nan;99926.47;4098007;28;20021;-66
2023/07/25 08:43:39;;;;;;;;;;;;;;;18.47;nan;99932.03;4097781;28;20050;-65
2023/07/25 08:45:42;;;;;;;;;;;;;;;18.52;nan;99941.09;4098025;28;20018;-66
2023/07/25 08:47:45;;;;;;;;;;;;;;;18.58;nan;99938.47;4097066;28;19998;-66
2023/07/25 08:49:47;;;;;;;;;;;;;;;18.63;nan;99931.16;4098106;28;20778;-65
2023/07/25 08:51:50;;;;;;;;;;;;;;;18.68;nan;99933.16;4098570;28;20496;-65
2023/07/25 08:53:54;;;;;;;;;;;;;;;18.73;nan;99930.50;4097993;28;20053;-66
2023/07/25 08:55:56;;;;;;;;;;;;;;;18.69;nan;99921.97;4097499;28;20022;-66
2023/07/25 08:57:58;;;;;;;;;;;;;;;18.69;nan;99932.91;4097542;28;20029;-66
2023/07/25 09:00:00;;;;;;;;;;;;;;;18.75;nan;99925.59;4097680;28;20010;-66
2023/07/25 09:02:04;;;;;;;;;;;;;;;18.79;nan;99924.00;4097730;28;20010;-66
2023/07/25 09:04:08;;;;;;;;;;;;;;;18.81;nan;99924.59;4096992;28;20021;-66
2023/07/25 09:06:09;;;;;;;;;;;;;;;18.83;nan;99925.19;4098549;28;20020;-65
2023/07/25 09:08:11;;;;;;;;;;;;;;;18.87;nan;99931.00;4097459;28;20759;-65
2023/07/25 09:10:13;;;;;;;;;;;;;;;18.91;nan;99927.50;4098109;28;20021;-65
2023/07/25 09:12:15;;;;;;;;;;;;;;;18.98;nan;99931.97;4096736;28;20070;-65
2023/07/25 09:14:17;;;;;;;;;;;;;;;19.01;nan;99935.03;4097803;28;19958;-65
2023/07/25 09:16:19;;;;;;;;;;;;;;;19.05;nan;99944.38;4098025;28;20020;-64
2023/07/25 09:18:23;;;;;;;;;;;;;;;19.09;nan;99936.53;4096705;28;20037;-66
2023/07/25 09:20:25;;;;;;;;;;;;;;;19.12;nan;99943.38;4096704;28;20005;-66
2023/07/25 09:22:26;;;;;;;;;;;;;;;19.15;nan;99956.56;4096772;28;20017;-66
2023/07/25 09:24:36;;;;;;;;;;;;;;;19.16;nan;99952.75;4096925;28;20030;-65
2023/07/25 09:26:39;;;;;;;;;;;;;;;19.15;nan;99957.38;4098270;28;20375;-65
2023/07/25 09:28:48;;;;;;;;;;;;;;;19.20;nan;99970.31;4097443;28;20356;-66
2023/07/25 09:30:50;;;;;;;;;;;;;;;19.18;nan;99976.03;4097856;28;20013;-67
2023/07/25 09:32:52;;;;;;;;;;;;;;;19.20;nan;99975.78;4096477;28;20364;-65
2023/07/25 09:34:59;;;;;;;;;;;;;;;19.17;nan;99976.28;4097068;28;20021;-66
2023/07/25 09:37:03;;;;;;;;;;;;;;;19.17;nan;99973.53;4097398;28;20005;-66
2023/07/25 09:39:05;;;;;;;;;;;;;;;19.20;nan;99973.03;4097357;28;20021;-66
2023/07/25 09:41:07;;;;;;;;;;;;;;;19.25;nan;99971.22;4097387;28;20009;-66
2023/07/25 09:43:09;;;;;;;;;;;;;;;19.30;nan;99964.97;4096261;28;20012;-66
2023/07/25 09:45:11;;;;;;;;;;;;;;;19.31;nan;99968.53;4097513;29;20026;-66
2023/07/25 09:47:13;;;;;;;;;;;;;;;19.31;nan;99954.84;4097230;28;20020;-66
2023/07/25 09:49:20;;;;;;;;;;;;;;;19.36;nan;99955.75;4097391;28;20017;-65
2023/07/25 09:51:23;;;;;;;;;;;;;;;19.39;nan;99955.25;4096881;28;20551;-65
2023/07/25 09:53:25;;;;;;;;;;;;;;;19.40;nan;99942.38;4096701;28;20024;-66
2023/07/25 09:55:26;;;;;;;;;;;;;;;19.40;nan;99937.75;4096618;28;20029;-65
2023/07/25 09:57:28;;;;;;;;;;;;;;;19.40;nan;99954.16;4096564;28;20004;-65
2023/07/25 09:59:30;;;;;;;;;;;;;;;19.38;nan;99952.75;4095103;28;20021;-66
2023/07/25 10:01:32;;;;;;;;;;;;;;;19.36;nan;99949.47;4097293;28;20017;-66
2023/07/25 10:03:34;;;;;;;;;;;;;;;19.39;nan;99957.16;4096376;28;20408;-65
2023/07/25 10:05:38;;;;;;;;;;;;;;;19.35;nan;99956.81;4097008;28;20096;-66
2023/07/25 10:07:41;;;;;;;;;;;;;;;19.34;nan;99954.34;4096643;28;20010;-66
2023/07/25 10:09:43;;;;;;;;;;;;;;;19.37;nan;99959.31;4096843;29;20057;-65
2023/07/25 10:11:45;;;;;;;;;;;;;;;19.38;nan;99947.28;4096919;28;20371;-66
2023/07/25 10:13:46;;;;;;;;;;;;;;;19.33;nan;99953.53;4095625;28;19941;-66
2023/07/25 10:15:51;;;;;;;;;;;;;;;19.31;nan;99957.59;4097217;28;19923;-66
2023/07/25 10:18:00;;;;;;;;;;;;;;;19.28;nan;99950.72;4094824;29;20021;-65
2023/07/25 10:20:02;;;;;;;;;;;;;;;19.28;nan;99950.72;4097191;28;20025;-66
2023/07/25 10:22:04;;;;;;;;;;;;;;;19.26;nan;99958.34;4095892;28;20005;-66
2023/07/25 10:24:07;;;;;;;;;;;;;;;19.23;nan;99956.13;4096577;28;20009;-66
2023/07/25 10:26:12;;;;;;;;;;;;;;;19.20;nan;99962.09;4094924;28;20512;-66
2023/07/25 10:28:14;;;;;;;;;;;;;;;19.15;nan;99962.84;4096896;28;20481;-65
2023/07/25 10:30:21;;;;;;;;;;;;;;;19.14;nan;99966.69;4096248;28;21420;-65
2023/07/25 10:32:23;;;;;;;;;;;;;;;19.13;nan;99961.47;4096935;28;20029;-65
2023/07/25 10:34:25;;;;;;;;;;;;;;;19.13;nan;99956.00;4097290;28;20345;-66
2023/07/25 10:36:27;;;;;;;;;;;;;;;19.16;nan;99960.97;4098389;28;20013;-65
2023/07/25 10:38:32;;;;;;;;;;;;;;;19.18;nan;99962.34;4099331;28;20009;-66
2023/07/25 10:40:51;;;;;;;;;;;;;;;19.22;nan;99962.69;4100038;28;20005;-65
2023/07/25 10:42:57;;;;;;;;;;;;;;;19.26;nan;99961.94;4099186;28;20037;-65
2023/07/25 10:44:58;;;;;;;;;;;;;;;19.31;nan;99965.78;4100038;28;20028;-65
2023/07/25 10:47:00;;;;;;;;;;;;;;;19.34;nan;99970.75;4099822;28;20290;-66
2023/07/25 10:49:03;;;;;;;;;;;;;;;19.38;nan;99958.22;4098937;28;20037;-64
2023/07/25 10:51:06;;;;;;;;;;;;;;;19.43;nan;99950.06;4099549;28;20017;-65
2023/07/25 10:53:14;;;;;;;;;;;;;;;19.52;nan;99948.53;4099155;28;20460;-66
2023/07/25 10:55:16;;;;;;;;;;;;;;;19.60;nan;99945.34;4100038;28;20017;-64